Time;durP1;ratioP1;P1;durP2;ratioP2;P2;SDS_P1;SDS_P2;PMS_P1;PMS_P2;Temp;Humidity;BMP_temperature;BMP_pressure;BME280_temperature;BME280_humidity;BME280_pressure;Samples;Min_cycle;Max_cycle;Signal;HPM_P1;HPM_P2
2022/10/16 00:00:42;;;;;;;18.05;2.60;;;12.40;99.90;;;;;;4984763;28;20046;-77
2022/10/16 00:03:08;;;;;;;8.60;1.70;;;12.20;99.90;;;;;;4999588;28;20171;-76
2022/10/16 00:05:39;;;;;;;3.35;2.53;;;12.20;99.90;;;;;;4986075;28;20481;-76
2022/10/16 00:08:05;;;;;;;9.38;2.00;;;12.40;99.90;;;;;;4987674;28;20057;-76
2022/10/16 00:10:31;;;;;;;6.70;2.85;;;12.40;99.90;;;;;;4983514;28;20041;-76
2022/10/16 00:12:56;;;;;;;4.70;1.10;;;12.10;99.90;;;;;;4970213;28;20118;-75
2022/10/16 00:15:22;;;;;;;6.50;1.30;;;12.40;99.90;;;;;;4970864;28;20050;-77
2022/10/16 00:17:48;;;;;;;7.78;2.25;;;12.20;99.90;;;;;;4984112;28;20053;-77
2022/10/16 00:20:13;;;;;;;8.77;2.53;;;12.50;99.90;;;;;;4979366;28;20046;-75
2022/10/16 00:22:39;;;;;;;9.98;2.38;;;12.20;99.90;;;;;;4984073;28;20038;-77
2022/10/16 00:25:06;;;;;;;25.40;3.13;;;12.40;99.90;;;;;;4982702;28;20093;-76
2022/10/16 00:27:31;;;;;;;5.55;1.20;;;12.50;99.90;;;;;;4992717;28;20552;-75
2022/10/16 00:29:57;;;;;;;4.53;1.05;;;12.20;99.90;;;;;;4989919;28;20050;-77
2022/10/16 00:32:22;;;;;;;4.13;1.27;;;12.50;99.90;;;;;;4988118;28;20034;-76
2022/10/16 00:34:48;;;;;;;4.75;1.70;;;12.20;99.90;;;;;;4983666;28;20129;-76
2022/10/16 00:37:14;;;;;;;6.55;1.70;;;12.50;99.90;;;;;;4988769;28;20121;-77
2022/10/16 00:39:39;;;;;;;6.43;1.67;;;12.60;99.90;;;;;;4985828;28;20045;-75
2022/10/16 00:42:05;;;;;;;8.18;2.00;;;12.60;99.90;;;;;;4993913;28;20035;-76
2022/10/16 00:44:49;;;;;;;3.88;1.40;;;12.40;99.90;;;;;;4980629;28;21177;-77
2022/10/16 00:47:44;;;;;;;4.57;1.20;;;12.60;99.90;;;;;;4974463;28;20051;-76
2022/10/16 00:50:32;;;;;;;6.07;1.60;;;12.80;99.90;;;;;;4973808;28;20409;-78
2022/10/16 00:53:00;;;;;;;7.20;0.95;;;12.80;99.90;;;;;;4988023;28;20050;-76
2022/10/16 00:55:26;;;;;;;7.30;2.20;;;12.70;99.90;;;;;;4987929;28;20042;-77
2022/10/16 00:57:52;;;;;;;6.65;1.48;;;12.60;99.90;;;;;;4981899;28;20139;-76
2022/10/16 01:00:22;;;;;;;9.45;2.40;;;12.80;99.90;;;;;;4971822;28;20045;-76
2022/10/16 01:03:00;;;;;;;8.40;2.50;;;12.60;99.90;;;;;;4983812;28;20536;-78
2022/10/16 01:05:35;;;;;;;6.75;1.40;;;12.50;99.90;;;;;;5076698;23;20877;-77
2022/10/16 01:08:23;;;;;;;3.45;2.15;;;12.80;99.90;;;;;;4965775;28;20047;-79
2022/10/16 01:11:04;;;;;;;5.75;1.33;;;12.70;99.90;;;;;;4955199;28;20632;-78
2022/10/16 01:13:38;;;;;;;3.28;1.08;;;12.80;99.90;;;;;;4962332;28;20058;-76
2022/10/16 01:16:14;;;;;;;34.38;2.83;;;12.60;99.90;;;;;;4962292;28;20043;-77
2022/10/16 01:18:43;;;;;;;5.40;1.20;;;12.50;99.90;;;;;;4952333;28;20039;-77
2022/10/16 01:21:26;;;;;;;8.40;1.63;;;12.70;99.90;;;;;;4968515;28;20043;-77
2022/10/16 01:24:37;;;;;;;2.05;1.52;;;12.80;99.90;;;;;;4971186;28;20134;-78
2022/10/16 01:27:23;;;;;;;4.47;1.50;;;12.70;99.90;;;;;;4929223;29;20043;-77
2022/10/16 01:30:30;;;;;;;3.80;1.30;;;12.70;99.90;;;;;;4949604;28;20051;-76
2022/10/16 01:33:06;;;;;;;7.30;2.35;;;12.60;99.90;;;;;;4885597;29;20060;-76
2022/10/16 01:35:37;;;;;;;4.03;1.63;;;12.50;99.90;;;;;;4891984;29;20172;-77
2022/10/16 01:38:02;;;;;;;;;;;12.70;99.90;;;;;;4930543;28;20049;-76
2022/10/16 01:40:29;;;;;;;10.10;2.95;;;12.70;99.90;;;;;;4969575;28;20340;-77
2022/10/16 01:43:04;;;;;;;3.47;1.88;;;12.70;99.90;;;;;;4968901;28;20042;-77
2022/10/16 01:45:32;;;;;;;2.83;1.30;;;12.80;99.90;;;;;;4970101;28;20058;-77
2022/10/16 01:48:03;;;;;;;8.32;1.85;;;12.80;99.90;;;;;;4969846;28;20366;-77
2022/10/16 01:50:33;;;;;;;10.23;1.85;;;12.60;99.90;;;;;;4970077;28;20038;-77
2022/10/16 01:53:01;;;;;;;2.15;1.73;;;12.60;99.90;;;;;;4970722;28;20075;-76
2022/10/16 01:55:33;;;;;;;5.15;1.60;;;12.80;99.90;;;;;;4964148;28;20397;-77
2022/10/16 01:58:02;;;;;;;4.38;1.52;;;12.60;99.90;;;;;;4969983;28;20043;-77
2022/10/16 02:00:30;;;;;;;4.32;1.33;;;12.70;99.90;;;;;;4968858;28;20386;-76
2022/10/16 02:02:58;;;;;;;6.35;1.48;;;12.70;99.90;;;;;;4968246;28;20101;-76
2022/10/16 02:05:49;;;;;;;6.43;1.73;;;12.60;99.90;;;;;;4962159;28;20043;-77
2022/10/16 02:08:14;;;;;;;;;;;12.80;99.90;;;;;;4969469;28;20510;-77
2022/10/16 02:10:40;;;;;;;6.25;1.80;;;12.60;99.90;;;;;;4970135;28;19925;-76
2022/10/16 02:13:08;;;;;;;3.72;1.20;;;12.70;99.90;;;;;;4968608;28;20094;-77
2022/10/16 02:15:35;;;;;;;4.32;1.20;;;12.60;99.90;;;;;;4964498;28;20513;-76
2022/10/16 02:18:03;;;;;;;5.57;2.33;;;12.50;99.90;;;;;;4951290;28;20062;-78
2022/10/16 02:20:33;;;;;;;4.85;1.67;;;12.60;99.90;;;;;;4962528;28;20057;-76
2022/10/16 02:23:01;;;;;;;11.27;3.03;;;12.50;99.90;;;;;;4951623;28;20080;-77
2022/10/16 02:25:31;;;;;;;10.13;3.25;;;12.70;99.90;;;;;;4964377;28;20769;-77
2022/10/16 02:28:19;;;;;;;5.68;1.27;;;12.60;99.90;;;;;;4951307;28;20051;-76
2022/10/16 02:30:52;;;;;;;11.40;2.72;;;12.70;99.90;;;;;;4964220;28;20047;-79
2022/10/16 02:33:20;;;;;;;4.65;2.13;;;12.50;99.90;;;;;;4965222;28;20401;-76
2022/10/16 02:35:48;;;;;;;5.68;1.30;;;12.70;99.90;;;;;;4951240;28;20047;-77
2022/10/16 02:38:15;;;;;;;3.47;1.10;;;12.70;99.90;;;;;;4951960;28;20470;-75
2022/10/16 02:40:42;;;;;;;3.67;1.80;;;12.60;99.90;;;;;;4973902;28;20057;-76
2022/10/16 02:43:08;;;;;;;6.63;2.10;;;12.70;99.90;;;;;;4972929;28;20039;-77
2022/10/16 02:45:34;;;;;;;5.55;1.33;;;12.60;99.90;;;;;;4971093;28;20031;-78
2022/10/16 02:48:00;;;;;;;5.63;1.17;;;12.50;99.90;;;;;;4960532;28;20039;-78
2022/10/16 02:50:26;;;;;;;6.15;1.20;;;12.50;99.90;;;;;;4974257;28;20055;-78
2022/10/16 02:52:51;;;;;;;2.90;1.70;;;12.50;99.90;;;;;;4972539;28;20050;-78
2022/10/16 02:55:17;;;;;;;3.65;1.10;;;12.40;99.90;;;;;;4973776;28;20342;-78
2022/10/16 02:57:43;;;;;;;7.10;2.55;;;12.40;99.90;;;;;;4959954;28;20047;-79
2022/10/16 03:00:11;;;;;;;5.35;1.55;;;12.40;99.90;;;;;;4959777;28;20043;-78
2022/10/16 03:02:37;;;;;;;2.40;1.35;;;12.50;99.90;;;;;;4969138;28;20047;-77
2022/10/16 03:05:04;;;;;;;4.72;2.15;;;12.40;99.90;;;;;;4973523;28;20558;-76
2022/10/16 03:07:29;;;;;;;7.13;1.52;;;12.20;99.90;;;;;;4973305;28;20186;-77
2022/10/16 03:09:55;;;;;;;6.32;2.55;;;12.40;99.90;;;;;;4973429;28;20129;-77
2022/10/16 03:12:21;;;;;;;4.53;1.70;;;12.30;99.90;;;;;;4958846;28;20129;-77
2022/10/16 03:14:47;;;;;;;4.18;1.42;;;12.50;99.90;;;;;;4971409;28;20434;-77
2022/10/16 03:17:13;;;;;;;12.80;2.30;;;12.30;99.90;;;;;;4969275;28;20182;-76
2022/10/16 03:19:39;;;;;;;8.75;2.13;;;12.30;99.90;;;;;;4974259;28;20053;-78
2022/10/16 03:22:04;;;;;;;4.85;1.42;;;12.40;99.90;;;;;;4972241;28;20046;-77
2022/10/16 03:24:30;;;;;;;5.03;1.80;;;12.40;99.90;;;;;;4971996;28;20441;-77
2022/10/16 03:26:56;;;;;;;3.63;1.33;;;12.40;99.90;;;;;;4970159;28;20199;-76
2022/10/16 03:29:21;;;;;;;5.90;2.25;;;12.30;99.90;;;;;;4972378;28;20128;-78
2022/10/16 03:31:49;;;;;;;3.28;1.30;;;12.40;99.90;;;;;;4968896;28;20834;-77
2022/10/16 03:34:15;;;;;;;6.90;1.30;;;12.40;99.90;;;;;;4972096;28;20055;-77
2022/10/16 03:36:40;;;;;;;6.68;1.65;;;12.30;99.90;;;;;;4970291;28;20045;-78
2022/10/16 03:39:06;;;;;;;5.95;1.33;;;12.50;99.90;;;;;;4970396;28;20113;-77
2022/10/16 03:41:31;;;;;;;3.72;1.73;;;12.50;99.90;;;;;;4974660;28;20093;-78
2022/10/16 03:43:57;;;;;;;4.00;1.48;;;12.30;99.90;;;;;;4964067;28;20031;-77
2022/10/16 03:46:23;;;;;;;3.88;2.00;;;12.50;99.90;;;;;;4974990;28;20046;-82
2022/10/16 03:48:48;;;;;;;4.78;1.38;;;12.50;99.90;;;;;;4977386;28;20057;-77
2022/10/16 03:51:14;;;;;;;2.38;1.25;;;12.20;99.90;;;;;;4975175;28;20434;-77
2022/10/16 03:53:40;;;;;;;5.60;1.15;;;12.20;99.90;;;;;;4956137;28;20095;-77
2022/10/16 03:56:06;;;;;;;1.85;1.08;;;12.50;99.90;;;;;;4955631;28;20098;-78
2022/10/16 03:58:31;;;;;;;2.63;1.45;;;12.40;99.90;;;;;;4958526;28;20154;-77
2022/10/16 04:00:57;;;;;;;2.53;0.82;;;12.20;99.90;;;;;;4954904;29;20134;-78
2022/10/16 04:03:22;;;;;;;2.95;1.60;;;12.50;99.90;;;;;;4966947;28;20510;-78
2022/10/16 04:05:49;;;;;;;4.57;1.30;;;12.50;99.90;;;;;;4972999;28;20042;-76
2022/10/16 04:08:15;;;;;;;4.25;2.05;;;12.30;99.90;;;;;;4972051;28;20065;-78
2022/10/16 04:10:43;;;;;;;6.78;1.77;;;12.40;99.90;;;;;;4957708;28;20047;-79
2022/10/16 04:13:09;;;;;;;4.10;1.52;;;12.30;99.90;;;;;;4962027;28;20043;-79
2022/10/16 04:15:34;;;;;;;15.75;2.25;;;12.30;99.90;;;;;;4970527;28;20089;-78
2022/10/16 04:18:00;;;;;;;2.33;1.63;;;12.50;99.90;;;;;;4969157;28;20479;-77
2022/10/16 04:20:26;;;;;;;3.72;1.38;;;12.40;99.90;;;;;;4972387;28;20047;-78
2022/10/16 04:22:51;;;;;;;6.60;1.60;;;12.40;99.90;;;;;;4962946;28;20039;-78
2022/10/16 04:25:17;;;;;;;6.53;2.25;;;12.40;99.90;;;;;;4971969;28;20441;-77
2022/10/16 04:27:43;;;;;;;2.70;1.42;;;12.40;99.90;;;;;;4966678;28;20039;-79
2022/10/16 04:30:08;;;;;;;4.28;1.23;;;12.50;99.90;;;;;;4972700;28;20038;-78
2022/10/16 04:32:34;;;;;;;6.97;2.58;;;12.60;99.90;;;;;;4969757;28;20039;-78
2022/10/16 04:35:00;;;;;;;4.78;1.20;;;12.70;99.90;;;;;;4971853;28;20117;-77
2022/10/16 04:37:26;;;;;;;3.95;1.50;;;12.50;99.90;;;;;;4959845;28;20130;-76
2022/10/16 04:39:53;;;;;;;6.47;2.15;;;12.60;99.90;;;;;;4971639;28;20421;-77
2022/10/16 04:42:19;;;;;;;5.15;1.40;;;12.50;99.90;;;;;;4968944;28;20393;-77
2022/10/16 04:44:45;;;;;;;6.22;1.80;;;12.70;99.90;;;;;;4951999;28;20190;-79
2022/10/16 04:47:11;;;;;;;2.08;0.88;;;12.50;99.90;;;;;;4958971;28;20513;-77
2022/10/16 04:49:36;;;;;;;5.35;2.15;;;12.50;99.90;;;;;;4952095;28;20054;-77
2022/10/16 04:52:03;;;;;;;3.35;1.52;;;12.80;99.90;;;;;;4952614;28;20101;-76
2022/10/16 04:54:28;;;;;;;6.57;1.63;;;12.80;99.90;;;;;;4956246;28;20042;-77
2022/10/16 04:56:54;;;;;;;5.75;2.80;;;12.70;99.90;;;;;;4961804;28;20039;-78
2022/10/16 04:59:20;;;;;;;11.05;1.88;;;12.80;99.90;;;;;;4965488;28;20089;-78
2022/10/16 05:01:46;;;;;;;7.47;1.63;;;12.70;99.90;;;;;;4971479;28;20046;-77
2022/10/16 05:04:12;;;;;;;5.30;1.77;;;12.80;99.90;;;;;;4970815;28;20106;-76
2022/10/16 05:06:40;;;;;;;4.90;1.40;;;12.70;99.90;;;;;;4961794;28;20055;-77
2022/10/16 05:09:06;;;;;;;5.05;2.42;;;12.60;99.90;;;;;;4962522;28;20454;-76
2022/10/16 05:11:33;;;;;;;6.65;2.53;;;12.40;99.90;;;;;;4966510;28;20063;-76
2022/10/16 05:13:58;;;;;;;5.13;1.75;;;12.80;99.90;;;;;;4959530;28;20122;-78
2022/10/16 05:16:24;;;;;;;6.35;2.35;;;12.70;99.90;;;;;;4971204;28;20138;-77
2022/10/16 05:18:51;;;;;;;5.07;1.88;;;12.70;99.90;;;;;;4970237;28;20090;-77
2022/10/16 05:21:17;;;;;;;3.88;2.00;;;12.40;99.90;;;;;;4970478;28;20121;-77
2022/10/16 05:23:42;;;;;;;10.18;2.65;;;12.80;99.90;;;;;;4966532;28;20130;-76
2022/10/16 05:26:08;;;;;;;7.30;3.13;;;12.80;99.90;;;;;;4956756;28;20082;-78
2022/10/16 05:28:34;;;;;;;4.32;2.17;;;12.60;99.90;;;;;;4967661;28;21729;-78
2022/10/16 05:31:03;;;;;;;4.55;2.22;;;12.60;99.90;;;;;;4968800;28;20043;-76
2022/10/16 05:33:29;;;;;;;3.80;2.00;;;12.40;99.90;;;;;;4951623;28;20414;-77
2022/10/16 05:35:54;;;;;;;4.72;2.42;;;12.60;99.90;;;;;;4970968;28;20097;-78
2022/10/16 05:38:20;;;;;;;8.48;2.45;;;12.40;99.90;;;;;;4969376;28;20042;-76
2022/10/16 05:40:52;;;;;;;3.97;2.05;;;12.80;99.90;;;;;;4968937;28;20055;-75
2022/10/16 05:43:19;;;;;;;4.25;2.15;;;12.50;99.90;;;;;;4969830;28;20046;-76
2022/10/16 05:45:54;;;;;;;6.43;1.85;;;12.50;99.90;;;;;;4967499;28;20051;-77
2022/10/16 05:48:19;;;;;;;8.75;3.83;;;12.50;99.90;;;;;;4951302;28;20051;-77
2022/10/16 05:50:45;;;;;;;7.95;2.55;;;12.50;99.90;;;;;;4969363;28;20501;-77
2022/10/16 05:53:10;;;;;;;4.28;2.17;;;12.50;99.90;;;;;;4963882;28;20047;-77
2022/10/16 05:55:36;;;;;;;5.20;2.78;;;12.80;99.90;;;;;;4962962;28;20051;-76
2022/10/16 05:58:01;;;;;;;5.47;2.65;;;12.60;99.90;;;;;;4949501;29;20126;-75
2022/10/16 06:00:27;;;;;;;9.32;3.83;;;12.60;99.90;;;;;;4980981;28;20141;-76
2022/10/16 06:02:53;;;;;;;3.95;2.38;;;12.60;99.90;;;;;;4969178;28;20051;-76
2022/10/16 06:05:19;;;;;;;4.47;2.47;;;12.90;99.90;;;;;;4966812;28;20125;-75
2022/10/16 06:07:44;;;;;;;2.55;1.95;;;12.60;99.90;;;;;;4950988;28;20499;-76
2022/10/16 06:10:10;;;;;;;3.42;2.33;;;12.80;99.90;;;;;;4963010;28;20049;-76
2022/10/16 06:12:36;;;;;;;5.22;2.63;;;12.50;99.90;;;;;;4967198;28;20058;-76
2022/10/16 06:15:01;;;;;;;5.18;3.20;;;12.40;99.90;;;;;;4973928;28;20050;-75
2022/10/16 06:17:27;;;;;;;3.92;2.55;;;12.80;99.90;;;;;;4974740;28;20185;-75
2022/10/16 06:19:53;;;;;;;6.10;2.05;;;12.80;99.90;;;;;;4966884;28;20043;-76
2022/10/16 06:22:18;;;;;;;6.30;3.47;;;12.70;99.90;;;;;;4956671;28;20130;-75
2022/10/16 06:24:44;;;;;;;6.32;2.63;;;12.40;99.90;;;;;;4972389;28;20123;-78
2022/10/16 06:27:09;;;;;;;5.38;3.10;;;12.50;99.90;;;;;;4972816;28;20046;-75
2022/10/16 06:29:35;;;;;;;7.72;2.63;;;12.50;99.90;;;;;;4970127;28;20094;-76
2022/10/16 06:32:01;;;;;;;5.00;3.03;;;12.50;99.90;;;;;;4960628;28;20109;-76
2022/10/16 06:34:26;;;;;;;5.90;3.70;;;12.50;99.90;;;;;;4973345;28;20161;-76
2022/10/16 06:36:52;;;;;;;3.40;1.98;;;12.80;99.90;;;;;;4951148;28;20046;-75
2022/10/16 06:39:17;;;;;;;4.80;2.08;;;12.90;99.90;;;;;;4969893;28;20050;-76
2022/10/16 06:41:43;;;;;;;8.35;2.95;;;12.70;99.90;;;;;;4969256;28;20035;-77
2022/10/16 06:44:09;;;;;;;6.30;3.10;;;12.70;99.90;;;;;;4974341;28;20046;-76
2022/10/16 06:46:34;;;;;;;7.30;2.35;;;12.90;99.90;;;;;;4962782;28;20042;-76
2022/10/16 06:49:00;;;;;;;8.30;2.45;;;12.70;99.90;;;;;;4966549;28;20047;-76
2022/10/16 06:51:26;;;;;;;6.18;2.30;;;12.60;99.90;;;;;;4961170;28;20444;-76
2022/10/16 06:53:53;;;;;;;5.25;2.60;;;12.80;99.90;;;;;;4961895;28;20047;-75
2022/10/16 06:56:19;;;;;;;7.55;2.33;;;12.60;99.90;;;;;;4962028;28;20043;-79
2022/10/16 06:58:45;;;;;;;7.80;3.35;;;12.90;99.90;;;;;;4961516;28;20046;-75
2022/10/16 07:01:12;;;;;;;2.88;1.67;;;12.80;99.90;;;;;;4961201;28;20035;-76
2022/10/16 07:03:42;;;;;;;5.93;2.70;;;12.90;99.90;;;;;;4958331;28;20391;-76
2022/10/16 07:06:10;;;;;;;5.78;2.25;;;13.10;99.90;;;;;;4963067;28;20055;-76
2022/10/16 07:08:38;;;;;;;3.92;2.40;;;13.00;99.90;;;;;;4962202;28;20513;-76
2022/10/16 07:11:12;;;;;;;7.03;2.72;;;12.70;99.90;;;;;;4954572;28;20039;-75
2022/10/16 07:13:40;;;;;;;9.70;2.28;;;13.10;99.90;;;;;;4958409;28;20062;-76
2022/10/16 07:16:07;;;;;;;4.53;1.67;;;13.00;99.90;;;;;;4962167;28;20043;-75
2022/10/16 07:18:33;;;;;;;7.10;2.10;;;13.00;99.90;;;;;;4959826;28;20430;-74
2022/10/16 07:21:10;;;;;;;6.82;1.88;;;12.60;99.90;;;;;;4958663;28;20070;-76
2022/10/16 07:23:37;;;;;;;5.07;2.00;;;13.00;99.90;;;;;;4955278;28;20043;-76
2022/10/16 07:26:04;;;;;;;8.55;2.20;;;12.90;99.90;;;;;;4956125;28;20039;-75
2022/10/16 07:28:31;;;;;;;8.23;2.05;;;12.80;99.90;;;;;;4960274;28;20043;-76
2022/10/16 07:31:02;;;;;;;5.88;1.75;;;12.60;99.90;;;;;;4962291;28;20173;-75
2022/10/16 07:33:28;;;;;;;3.47;1.80;;;13.00;99.90;;;;;;4959596;28;20489;-75
2022/10/16 07:35:54;;;;;;;6.30;2.08;;;13.00;99.90;;;;;;4961266;28;20449;-78
2022/10/16 07:38:21;;;;;;;11.43;2.35;;;12.50;99.90;;;;;;4964060;28;20046;-77
2022/10/16 07:40:47;;;;;;;4.75;1.98;;;13.00;99.90;;;;;;4972917;28;20039;-77
2022/10/16 07:43:14;;;;;;;2.95;1.83;;;12.50;99.90;;;;;;4972250;28;20042;-76
2022/10/16 07:45:48;;;;;;;7.13;2.47;;;12.60;99.90;;;;;;4969648;28;20114;-76
2022/10/16 07:48:15;;;;;;;5.93;3.15;;;13.00;99.90;;;;;;4964364;28;20476;-76
2022/10/16 07:50:41;;;;;;;6.28;2.88;;;13.10;99.90;;;;;;4958470;28;20878;-76
2022/10/16 07:53:07;;;;;;;7.82;2.92;;;12.80;99.90;;;;;;4960739;28;20051;-76
2022/10/16 07:55:33;;;;;;;4.78;2.38;;;13.10;99.90;;;;;;4954044;28;20443;-77
2022/10/16 07:57:58;;;;;;;8.48;2.95;;;13.30;99.90;;;;;;4957347;28;20035;-78
2022/10/16 08:00:24;;;;;;;19.98;2.63;;;12.90;99.90;;;;;;4961590;28;20038;-77
2022/10/16 08:02:50;;;;;;;7.07;2.20;;;13.00;99.90;;;;;;4972900;28;20046;-78
2022/10/16 08:05:15;;;;;;;4.70;1.77;;;13.20;99.90;;;;;;4963807;28;20050;-76
2022/10/16 08:07:41;;;;;;;7.45;2.45;;;13.50;99.90;;;;;;4962006;28;20042;-76
2022/10/16 08:10:20;;;;;;;4.93;2.67;;;13.50;99.90;;;;;;4971889;28;20054;-76
2022/10/16 08:12:45;;;;;;;6.65;2.22;;;13.80;99.90;;;;;;4968389;28;20054;-77
2022/10/16 08:15:11;;;;;;;5.32;2.83;;;13.80;99.90;;;;;;4967878;28;20046;-77
2022/10/16 08:17:37;;;;;;;9.77;2.45;;;13.50;99.90;;;;;;4952369;28;20051;-76
2022/10/16 08:20:04;;;;;;;5.40;2.38;;;14.10;99.90;;;;;;4948506;28;20099;-76
2022/10/16 08:22:29;;;;;;;5.15;1.85;;;14.10;99.90;;;;;;4957750;28;20130;-77
2022/10/16 08:24:55;;;;;;;6.95;1.88;;;13.80;99.90;;;;;;4973279;28;20118;-77
2022/10/16 08:27:20;;;;;;;11.20;3.72;;;14.00;99.90;;;;;;4966860;28;20085;-77
2022/10/16 08:29:48;;;;;;;4.88;1.70;;;14.00;99.90;;;;;;4971505;28;20450;-78
2022/10/16 08:32:13;;;;;;;6.65;1.83;;;14.10;99.90;;;;;;4961490;28;20126;-76
2022/10/16 08:34:39;;;;;;;5.40;2.25;;;14.30;99.90;;;;;;4969479;28;20137;-76
2022/10/16 08:37:04;;;;;;;5.93;1.05;;;14.40;99.90;;;;;;4980464;28;20093;-77
2022/10/16 08:39:30;;;;;;;6.72;1.45;;;14.60;99.90;;;;;;4960756;28;20046;-78
2022/10/16 08:42:05;;;;;;;5.20;1.10;;;14.30;99.90;;;;;;4970509;28;20038;-78
2022/10/16 08:44:49;;;;;;;5.47;1.67;;;14.40;99.90;;;;;;4966072;28;20561;-76
2022/10/16 08:47:19;;;;;;;3.35;1.42;;;14.50;99.90;;;;;;4955565;28;20490;-76
2022/10/16 08:49:56;;;;;;;6.20;2.10;;;14.80;99.90;;;;;;4963652;28;20055;-77
2022/10/16 08:52:23;;;;;;;4.60;1.40;;;14.80;99.90;;;;;;4965584;28;20165;-77
2022/10/16 08:54:53;;;;;;;4.05;1.13;;;14.90;99.90;;;;;;4970437;28;20449;-76
2022/10/16 08:57:22;;;;;;;4.47;2.40;;;14.70;99.90;;;;;;4985197;28;20401;-74
2022/10/16 08:59:48;;;;;;;6.43;1.45;;;14.70;99.90;;;;;;4954309;28;20093;-74
2022/10/16 09:02:26;;;;;;;10.68;2.08;;;14.70;99.90;;;;;;4961440;28;20494;-75
2022/10/16 09:05:13;;;;;;;7.90;2.47;;;14.90;99.90;;;;;;4952568;28;20047;-75
2022/10/16 09:07:45;;;;;;;13.48;3.05;;;15.00;99.90;;;;;;4966770;28;20047;-74
2022/10/16 09:10:54;;;;;;;6.30;1.88;;;14.70;99.90;;;;;;4951989;28;20043;-76
2022/10/16 09:14:10;;;;;;;5.25;1.27;;;15.00;99.90;;;;;;4964643;28;20493;-75
2022/10/16 09:16:42;;;;;;;6.43;1.42;;;15.10;99.90;;;;;;4894290;29;20076;-75
2022/10/16 09:19:11;;;;;;;5.70;1.50;;;15.00;99.90;;;;;;4912547;29;20044;-75
2022/10/16 09:21:42;;;;;;;8.20;2.35;;;14.90;99.90;;;;;;4940585;28;20090;-74
2022/10/16 09:24:20;;;;;;;7.40;3.08;;;14.80;99.90;;;;;;4965418;28;20110;-74
2022/10/16 09:26:47;;;;;;;14.95;2.00;;;14.70;99.90;;;;;;4952531;28;20046;-75
2022/10/16 09:29:14;;;;;;;10.07;2.75;;;15.00;99.90;;;;;;4970689;28;20046;-76
2022/10/16 09:31:41;;;;;;;7.40;1.80;;;15.00;99.90;;;;;;4955288;28;20054;-75
2022/10/16 09:34:18;;;;;;;7.82;1.55;;;15.00;99.90;;;;;;4953916;28;20055;-75
2022/10/16 09:36:46;;;;;;;5.70;1.10;;;15.20;99.90;;;;;;4960469;28;20039;-75
2022/10/16 09:39:11;;;;;;;12.02;2.25;;;15.10;99.90;;;;;;4956350;28;20121;-74
2022/10/16 09:41:41;;;;;;;21.80;4.43;;;15.20;99.90;;;;;;4960723;28;20146;-74
2022/10/16 09:44:28;;;;;;;15.40;3.50;;;15.30;99.90;;;;;;4960522;28;20125;-74
2022/10/16 09:47:17;;;;;;;9.57;2.40;;;15.30;99.90;;;;;;4953322;28;20035;-74
2022/10/16 09:49:57;;;;;;;9.50;2.83;;;15.10;99.90;;;;;;4954747;28;20047;-74
2022/10/16 09:52:23;;;;;;;8.50;2.15;;;15.30;99.90;;;;;;4949941;28;20035;-75
2022/10/16 09:54:54;;;;;;;9.93;2.60;;;15.40;99.90;;;;;;4950759;28;20046;-74
2022/10/16 09:57:20;;;;;;;15.50;3.03;;;15.40;99.90;;;;;;4966381;28;20047;-75
2022/10/16 09:59:51;;;;;;;15.75;3.35;;;15.60;99.90;;;;;;4970462;28;20043;-74
2022/10/16 10:02:20;;;;;;;11.35;2.22;;;15.50;99.90;;;;;;4970393;28;20145;-75
2022/10/16 10:04:54;;;;;;;9.63;3.53;;;15.60;99.90;;;;;;4955109;28;20516;-75
2022/10/16 10:07:27;;;;;;;10.82;2.58;;;15.50;99.90;;;;;;4967001;28;20797;-75
2022/10/16 10:09:54;;;;;;;10.50;1.98;;;15.50;99.90;;;;;;4969085;28;20142;-74
2022/10/16 10:12:23;;;;;;;12.20;2.95;;;15.60;99.90;;;;;;4967814;28;20517;-74
2022/10/16 10:14:51;;;;;;;15.25;2.67;;;15.70;99.90;;;;;;4970323;28;20101;-74
2022/10/16 10:17:23;;;;;;;17.30;4.07;;;15.80;99.90;;;;;;4970014;28;20580;-74
2022/10/16 10:19:56;;;;;;;9.40;2.28;;;15.80;99.90;;;;;;4954399;28;20090;-74
2022/10/16 10:22:44;;;;;;;12.00;2.20;;;15.70;99.90;;;;;;4950591;28;20071;-74
2022/10/16 10:25:12;;;;;;;17.95;3.60;;;15.80;99.90;;;;;;4966559;28;20047;-74
2022/10/16 10:28:01;;;;;;;7.63;2.58;;;15.90;99.90;;;;;;4979119;28;20098;-74
2022/10/16 10:30:43;;;;;;;16.23;3.22;;;15.80;99.90;;;;;;4950341;29;20058;-75
2022/10/16 10:33:31;;;;;;;7.57;1.92;;;16.00;99.90;;;;;;4951048;28;20698;-75
2022/10/16 10:36:00;;;;;;;11.30;3.58;;;16.00;99.90;;;;;;4949824;28;20058;-74
2022/10/16 10:38:56;;;;;;;18.40;3.75;;;16.00;99.90;;;;;;4951461;28;20047;-75
2022/10/16 10:41:22;;;;;;;10.07;2.65;;;16.10;99.90;;;;;;4950884;28;20047;-79
2022/10/16 10:44:25;;;;;;;12.65;2.75;;;16.00;99.90;;;;;;4968685;28;20413;-74
2022/10/16 10:47:10;;;;;;;9.18;2.05;;;16.00;99.90;;;;;;4973807;28;20134;-75
2022/10/16 10:49:52;;;;;;;7.78;2.20;;;15.90;99.90;;;;;;4967226;28;20041;-75
2022/10/16 10:52:43;;;;;;;15.35;2.78;;;15.90;99.90;;;;;;4959945;28;20054;-75
2022/10/16 10:55:30;;;;;;;11.10;2.67;;;15.80;99.90;;;;;;4969510;28;20075;-75
2022/10/16 10:58:20;;;;;;;12.25;1.92;;;16.00;99.90;;;;;;4963305;28;20058;-76
2022/10/16 11:00:59;;;;;;;12.48;2.17;;;16.10;99.90;;;;;;4952831;28;20062;-75
2022/10/16 11:03:47;;;;;;;11.23;3.47;;;16.00;99.90;;;;;;4963413;28;20074;-75
2022/10/16 11:06:29;;;;;;;14.23;2.60;;;15.80;99.90;;;;;;4971116;28;20142;-75
2022/10/16 11:09:25;;;;;;;14.32;3.75;;;15.90;99.90;;;;;;4954274;28;20446;-72
2022/10/16 11:12:09;;;;;;;13.35;2.28;;;16.00;99.90;;;;;;4952618;28;20058;-75
2022/10/16 11:14:45;;;;;;;16.15;2.70;;;15.80;99.90;;;;;;4961929;28;20054;-76
2022/10/16 11:17:17;;;;;;;11.85;1.88;;;16.20;99.90;;;;;;4962352;28;20039;-75
2022/10/16 11:20:10;;;;;;;14.90;3.10;;;16.40;99.90;;;;;;4955391;28;20071;-74
2022/10/16 11:22:59;;;;;;;19.40;3.90;;;16.40;99.90;;;;;;4958606;28;20055;-75
2022/10/16 11:25:31;;;;;;;14.55;3.03;;;16.70;99.90;;;;;;4970125;28;20054;-75
2022/10/16 11:28:14;;;;;;;14.23;3.83;;;16.70;99.90;;;;;;4968072;28;20035;-75
2022/10/16 11:30:46;;;;;;;8.52;1.52;;;16.70;99.90;;;;;;4973414;28;20046;-75
2022/10/16 11:33:27;;;;;;;9.02;2.17;;;16.90;99.90;;;;;;4963430;28;20071;-75
2022/10/16 11:35:57;;;;;;;12.13;2.83;;;16.90;99.90;;;;;;4972917;28;20493;-75
2022/10/16 11:38:28;;;;;;;10.48;2.47;;;16.80;99.90;;;;;;4965564;28;20098;-74
2022/10/16 11:41:00;;;;;;;12.65;3.08;;;16.80;99.90;;;;;;4962227;28;20379;-75
2022/10/16 11:43:34;;;;;;;13.23;3.13;;;16.70;99.90;;;;;;4968243;28;20050;-74
2022/10/16 11:46:10;;;;;;;13.40;4.18;;;16.40;99.90;;;;;;4969408;28;20039;-75
2022/10/16 11:49:00;;;;;;;19.73;4.55;;;16.00;99.90;;;;;;4962856;28;20539;-74
2022/10/16 11:51:34;;;;;;;12.10;2.50;;;16.10;99.90;;;;;;4962000;28;20049;-73
2022/10/16 11:54:26;;;;;;;8.23;2.10;;;16.00;99.90;;;;;;4969343;28;20042;-75
2022/10/16 11:56:57;;;;;;;18.45;3.63;;;15.90;99.90;;;;;;4967310;28;20054;-74
2022/10/16 11:59:26;;;;;;;17.88;2.72;;;15.80;99.90;;;;;;4955827;28;20055;-75
2022/10/16 12:01:58;;;;;;;10.93;2.25;;;15.80;99.90;;;;;;4953247;28;20054;-75
2022/10/16 12:04:45;;;;;;;13.63;3.15;;;15.90;99.90;;;;;;4952743;28;20053;-75
2022/10/16 12:07:26;;;;;;;12.27;2.10;;;16.30;99.90;;;;;;4968048;28;20059;-76
2022/10/16 12:09:52;;;;;;;9.32;1.90;;;16.30;99.90;;;;;;4959773;28;20058;-75
2022/10/16 12:12:33;;;;;;;13.23;2.25;;;16.40;99.90;;;;;;4968891;28;20039;-75
2022/10/16 12:15:18;;;;;;;9.32;3.33;;;16.50;99.90;;;;;;4958318;28;20058;-74
2022/10/16 12:17:44;;;;;;;13.95;3.33;;;16.50;99.90;;;;;;4957208;28;20070;-74
2022/10/16 12:20:12;;;;;;;16.48;1.63;;;16.50;99.90;;;;;;4957087;28;20133;-73
2022/10/16 12:22:47;;;;;;;7.53;1.67;;;16.60;99.90;;;;;;4963415;28;20074;-73
2022/10/16 12:25:22;;;;;;;9.80;3.40;;;16.60;99.90;;;;;;4962214;28;20047;-74
2022/10/16 12:27:59;;;;;;;9.10;2.65;;;16.40;99.90;;;;;;4960823;28;20054;-74
2022/10/16 12:30:26;;;;;;;11.55;2.65;;;16.30;99.90;;;;;;4957425;28;20039;-75
2022/10/16 12:33:16;;;;;;;16.15;3.38;;;16.10;99.90;;;;;;4962854;28;20642;-75
2022/10/16 12:35:45;;;;;;;13.90;3.45;;;15.90;99.90;;;;;;4954779;28;20368;-76
2022/10/16 12:38:21;;;;;;;8.87;2.20;;;15.70;99.90;;;;;;4958276;28;20410;-75
2022/10/16 12:41:02;;;;;;;15.32;3.95;;;15.60;99.90;;;;;;4960781;28;20775;-74
2022/10/16 12:43:44;;;;;;;9.80;2.20;;;15.60;99.90;;;;;;4960774;28;20038;-72
2022/10/16 12:46:09;;;;;;;11.15;2.00;;;15.50;99.90;;;;;;4961180;28;20105;-72
2022/10/16 12:48:40;;;;;;;14.45;3.10;;;15.50;99.90;;;;;;4948542;28;20047;-72
2022/10/16 12:51:32;;;;;;;12.75;2.13;;;15.60;99.90;;;;;;4958517;28;20054;-73
2022/10/16 12:54:16;;;;;;;15.10;4.10;;;15.80;99.90;;;;;;4956780;28;20058;-73
2022/10/16 12:57:32;;;;;;;9.25;2.30;;;16.00;99.90;;;;;;4949928;28;20051;-73
2022/10/16 13:00:26;;;;;;;10.00;2.70;;;16.00;99.90;;;;;;4951222;28;20055;-73
2022/10/16 13:03:16;;;;;;;14.13;3.53;;;15.90;99.90;;;;;;4961521;28;20526;-75
2022/10/16 13:06:00;;;;;;;22.35;3.38;;;15.80;99.90;;;;;;4963888;28;20092;-75